createdAt,value
2018-05-03T16:59:50.690Z,25.6
2018-05-03T17:09:49.669Z,25.4
2018-05-03T17:19:48.966Z,24.9
2018-05-03T17:29:48.471Z,24.7
2018-05-03T17:39:47.261Z,24.9
2018-05-03T17:49:47.009Z,24.9
2018-05-03T17:59:45.938Z,25.1
2018-05-03T18:09:44.996Z,25.1
2018-05-03T18:19:44.267Z,25.3
2018-05-03T18:29:43.493Z,25.3
2018-05-03T18:39:42.759Z,25.4
2018-05-03T18:49:42.164Z,25.5
2018-05-03T18:59:41.776Z,25.6
2018-05-03T19:09:40.920Z,25.6
2018-05-03T19:19:39.655Z,25.6
2018-05-03T19:29:38.988Z,25.7
2018-05-03T19:39:38.449Z,25.8
2018-05-03T19:49:37.557Z,25.8
2018-05-03T19:59:36.526Z,25.8
2018-05-03T20:09:35.974Z,25.8
2018-05-03T20:19:35.040Z,25.8
2018-05-03T20:29:34.238Z,25.8
2018-05-03T20:39:33.749Z,25.8
2018-05-03T20:49:32.650Z,25.8
2018-05-03T20:59:32.049Z,25.7
2018-05-03T21:09:31.051Z,25.8
2018-05-03T21:19:30.365Z,25.8
2018-05-03T21:29:29.523Z,25.8
2018-05-03T21:39:28.677Z,25.8
2018-05-03T21:49:27.911Z,25.8
2018-05-03T21:59:27.123Z,25.8
2018-05-03T22:09:26.323Z,25.8
2018-05-03T22:19:25.563Z,25.8
2018-05-03T22:29:24.740Z,25.8
2018-05-03T22:39:25.251Z,25.8
2018-05-03T22:49:23.363Z,25.8
2018-05-03T22:59:22.778Z,25.8
2018-05-03T23:09:21.739Z,25.7
2018-05-03T23:19:20.937Z,25.8
2018-05-03T23:29:20.851Z,25.8
2018-05-03T23:39:19.353Z,25.8
2018-05-03T23:49:18.569Z,25.8
2018-05-03T23:59:18.126Z,25.8
